Euskara    
Meteorología y climatología de Navarra
Datos de la estación - Meteo Navarra

Estación de Erremendia (Salazar) GN

Altitud 1047 m.


Datos desde el 14/01/2021 hasta el 15/01/2021 en horario solar
Los datos son PROVISIONALES

Anterior Página 1 de 1 Siguiente Descargar: Formato para Excel 2000 o superior   Formato csv   Formato para OpenOffice Calc
Fecha Temperatura Humedad relativa Radiación global Insolación Precipitación Vel. viento 10 m Vel. viento 10 m Dir. viento 10 m
°C % W/m² s l/m² m/s km/h °
14/01/2021 0:00 1.6 91 0.0 0 0.0 3.4 12.1 344
14/01/2021 0:10 1.4 91 0.0 0 0.0 3.9 14.1 335
14/01/2021 0:20 1.3 92 0.0 0 0.0 3.7 13.2 346
14/01/2021 0:30 1.4 90 0.0 0 0.0 3.7 13.4 340
14/01/2021 0:40 1.3 90 0.0 0 0.0 4.2 15.1 329
14/01/2021 0:50 1.2 91 0.0 0 0.0 3.7 13.2 337
14/01/2021 1:00 1.3 91 0.0 0 0.0 4.1 14.8 336
14/01/2021 1:10 1.3 91 0.0 0 0.0 3.9 14.0 338
14/01/2021 1:20 1.2 91 0.0 0 0.0 3.5 12.5 340
14/01/2021 1:30 1.2 90 0.0 0 0.0 3.0 10.9 344
14/01/2021 1:40 1.2 90 0.0 0 0.0 3.3 11.8 344
14/01/2021 1:50 1.2 90 0.0 0 0.0 3.1 11.1 337
14/01/2021 2:00 1.2 90 0.0 0 0.0 2.7 9.8 339
14/01/2021 2:10 1.2 90 0.0 0 0.0 2.9 10.4 345
14/01/2021 2:20 1.3 90 0.0 0 0.0 2.4 8.5 342
14/01/2021 2:30 1.3 89 0.0 0 0.0 1.8 6.4 333
14/01/2021 2:40 1.2 90 0.0 0 0.0 1.1 4.0 313
14/01/2021 2:50 1.2 90 0.0 0 0.0 1.1 4.1 296
14/01/2021 3:00 1.0 91 0.0 0 0.0 0.9 3.2 336
14/01/2021 3:10 1.0 90 0.0 0 0.0 2.6 9.2 334
14/01/2021 3:20 1.2 90 0.0 0 0.0 2.9 10.5 330
14/01/2021 3:30 1.1 91 0.0 0 0.0 3.3 12.0 333
14/01/2021 3:40 1.2 92 0.0 0 0.0 3.7 13.4 334
14/01/2021 3:50 1.1 92 0.0 0 0.0 3.8 13.6 332
14/01/2021 4:00 1.0 91 0.0 0 0.0 4.1 14.6 332
14/01/2021 4:10 1.1 89 0.0 0 0.0 3.5 12.6 342
14/01/2021 4:20 1.2 88 0.0 0 0.0 4.1 14.8 341
14/01/2021 4:30 1.2 87 0.0 0 0.0 4.0 14.4 341
14/01/2021 4:40 1.2 87 0.0 0 0.0 4.1 14.9 343
14/01/2021 4:50 1.3 88 0.0 0 0.0 4.0 14.5 341
14/01/2021 5:00 1.3 89 0.0 0 0.0 3.8 13.6 341
14/01/2021 5:10 1.2 90 0.0 0 0.0 3.8 13.5 335
14/01/2021 5:20 1.4 90 0.0 0 0.0 3.7 13.4 345
14/01/2021 5:30 1.3 89 0.0 0 0.0 3.2 11.6 339
14/01/2021 5:40 1.3 90 0.0 0 0.0 2.5 8.9 360
14/01/2021 5:50 1.3 90 0.0 0 0.0 2.9 10.3 355
14/01/2021 6:00 1.3 90 0.0 0 0.0 2.3 8.4 358
14/01/2021 6:10 1.2 90 0.0 0 0.0 3.0 10.7 350
14/01/2021 6:20 1.2 90 0.0 0 0.0 3.5 12.6 340
14/01/2021 6:30 0.9 90 0.0 0 0.0 3.5 12.6 334
14/01/2021 6:40 0.7 90 0.0 0 0.0 3.3 12.0 330
14/01/2021 6:50 0.6 91 0.0 0 0.0 4.0 14.3 330
14/01/2021 7:00 0.7 91 0.0 0 0.0 4.0 14.3 329
14/01/2021 7:10 0.8 92 0.0 0 0.0 4.4 15.8 328
14/01/2021 7:20 0.8 92 0.0 0 0.0 4.2 15.0 328
14/01/2021 7:30 0.8 93 0.0 0 0.0 4.3 15.6 328
14/01/2021 7:40 0.8 93 0.0 0 0.0 4.1 14.8 321
14/01/2021 7:50 0.8 92 0.5 0 0.0 4.2 14.9 328
14/01/2021 8:00 0.8 93 17.3 0 0.0 3.8 13.7 322
14/01/2021 8:10 0.8 93 23.8 0 0.0 3.5 12.4 327
14/01/2021 8:20 0.9 93 28.5 0 0.0 3.4 12.2 328
14/01/2021 8:30 1.1 93 66.9 414 0.0 3.5 12.4 326
14/01/2021 8:40 1.2 93 76.8 358 0.0 3.7 13.2 326
14/01/2021 8:50 1.4 93 43.4 0 0.0 3.5 12.7 321
14/01/2021 9:00 1.4 93 84.8 70 0.0 4.3 15.6 325
14/01/2021 9:10 1.5 93 80.9 0 0.0 2.8 10.0 316
14/01/2021 9:20 1.6 93 66.5 0 0.0 3.2 11.6 324
14/01/2021 9:30 1.7 93 118.1 42 0.0 3.3 11.8 316
14/01/2021 9:40 1.8 93 133.3 30 0.0 3.4 12.4 314
14/01/2021 9:50 1.9 93 133.2 12 0.0 3.4 12.3 322
14/01/2021 10:00 1.9 93 169.5 274 0.0 3.2 11.4 322
14/01/2021 10:10 2.1 92 190.0 396 0.0 3.4 12.3 325
14/01/2021 10:20 2.0 92 162.7 144 0.0 2.7 9.6 332
14/01/2021 10:30 2.1 91 154.5 0 0.0 2.3 8.4 324
14/01/2021 10:40 2.0 91 137.8 0 0.0 2.9 10.5 326
14/01/2021 10:50 2.0 92 139.7 0 0.0 2.4 8.6 315
14/01/2021 11:00 2.1 92 163.9 0 0.0 1.5 5.4 319
14/01/2021 11:10 2.2 91 168.5 0 0.0 1.3 4.5 329
14/01/2021 11:20 2.1 91 182.8 0 0.0 2.4 8.6 339
14/01/2021 11:30 2.0 90 207.0 134 0.0 2.7 9.5 349
14/01/2021 11:40 2.1 88 218.8 174 0.0 3.2 11.4 342
14/01/2021 11:50 2.3 88 222.6 172 0.0 2.1 7.6 337
14/01/2021 12:00 2.3 88 215.1 192 0.0 1.8 6.4 334
14/01/2021 12:10 2.2 89 219.3 138 0.0 1.8 6.6 327
14/01/2021 12:20 2.3 87 264.3 322 0.0 2.4 8.7 322
14/01/2021 12:30 2.2 85 205.6 40 0.0 1.8 6.4 337
14/01/2021 12:40 2.2 84 159.4 0 0.0 2.1 7.6 348
14/01/2021 12:50 2.2 85 180.0 56 0.0 1.5 5.4 356
14/01/2021 13:00 2.3 84 191.5 30 0.0 1.4 5.0 313
14/01/2021 13:10 2.5 83 175.1 0 0.0 0.8 2.9 71
14/01/2021 13:20 2.4 84 154.0 0 0.0 2.1 7.4 344
14/01/2021 13:30 2.2 84 152.2 0 0.0 1.4 5.1 344
14/01/2021 13:40 2.3 84 143.2 0 0.0 1.1 4.1 302
14/01/2021 13:50 2.3 84 157.3 80 0.0 1.5 5.3 20
14/01/2021 14:00 2.3 85 166.6 152 0.0 2.2 8.1 343
14/01/2021 14:10 2.5 85 227.5 422 0.0 3.0 10.9 315
14/01/2021 14:20 2.8 84 222.5 354 0.0 2.3 8.2 312
14/01/2021 14:30 2.6 84 101.4 0 0.0 1.6 5.7 328
14/01/2021 14:40 2.5 86 81.4 0 0.0 1.7 6.3 356
14/01/2021 14:50 2.3 88 83.5 0 0.0 1.3 4.6 349
14/01/2021 15:00 2.3 89 75.4 0 0.0 1.8 6.6 4
14/01/2021 15:10 2.2 89 61.6 0 0.0 2.0 7.0 345
14/01/2021 15:20 2.2 90 74.2 0 0.0 2.5 8.9 342
14/01/2021 15:30 2.4 90 84.8 0 0.0 2.0 7.2 336
14/01/2021 15:40 2.4 90 57.6 0 0.0 1.7 5.9 349
14/01/2021 15:50 2.3 91 38.8 0 0.0 1.3 4.6 357
14/01/2021 16:00 2.2 92 36.9 0 0.0 0.8 2.8 21
14/01/2021 16:10 2.2 93 30.0 0 0.0 0.6 2.3 22
14/01/2021 16:20 2.3 94 21.8 0 0.0 0.6 2.2 309
14/01/2021 16:30 2.1 94 0.0 0 0.0 0.8 2.8 235
14/01/2021 16:40 1.9 95 0.0 0 0.0 0.7 2.4 228
14/01/2021 16:50 1.9 95 0.0 0 0.0 0.6 2.1 213
14/01/2021 17:00 1.8 95 0.0 0 0.0 0.8 2.8 205
14/01/2021 17:10 1.7 96 0.0 0 0.0 0.6 2.3 228
14/01/2021 17:20 1.7 96 0.0 0 0.0 0.8 2.7 221
14/01/2021 17:30 1.8 96 0.0 0 0.0 0.5 1.9 199
14/01/2021 17:40 1.9 97 0.0 0 0.0 0.8 2.7 213
14/01/2021 17:50 2.0 97 0.0 0 0.0 0.4 1.6 256
14/01/2021 18:00 2.2 97 0.0 0 0.0 0.5 1.7 270
14/01/2021 18:10 2.4 97 0.0 0 0.0 0.9 3.1 309
14/01/2021 18:20 2.5 97 0.0 0 0.0 1.4 5.1 280
14/01/2021 18:30 2.6 97 0.0 0 0.0 1.2 4.2 300
14/01/2021 18:40 2.8 97 0.0 0 0.0 0.8 2.8 11
14/01/2021 18:50 2.8 97 0.0 0 0.0 0.8 2.8 280
14/01/2021 19:00 2.8 97 0.0 0 0.0 1.5 5.2 290
14/01/2021 19:10 2.9 97 0.0 0 0.0 1.3 4.6 274
14/01/2021 19:20 3.0 97 0.0 0 0.0 0.9 3.1 355
14/01/2021 19:30 3.0 97 0.0 0 0.0 1.3 4.5 261
14/01/2021 19:40 3.0 97 0.0 0 0.0 1.3 4.8 297
14/01/2021 19:50 3.1 97 0.0 0 0.0 1.0 3.7 206
14/01/2021 20:00 3.1 97 0.0 0 0.0 1.6 5.6 276
14/01/2021 20:10 3.1 97 0.0 0 0.0 1.1 4.1 231
14/01/2021 20:20 3.0 97 0.0 0 0.0 1.2 4.1 229
14/01/2021 20:30 2.9 97 0.0 0 0.0 1.2 4.1 286
14/01/2021 20:40 3.0 96 0.0 0 0.0 2.0 7.2 302
14/01/2021 20:50 3.0 95 0.0 0 0.0 1.2 4.4 67
14/01/2021 21:00 3.0 93 0.0 0 0.0 1.4 4.9 78
14/01/2021 21:10 3.1 90 0.0 0 0.0 1.9 6.7 357
14/01/2021 21:20 3.3 85 0.0 0 0.0 2.2 7.8 225
14/01/2021 21:30 3.2 86 0.0 0 0.0 1.2 4.4 303
14/01/2021 21:40 3.1 84 0.0 0 0.0 1.8 6.4 301
14/01/2021 21:50 3.0 84 0.0 0 0.0 1.1 4.0 163
14/01/2021 22:00 2.8 84 0.0 0 0.0 1.4 5.1 100
14/01/2021 22:10 2.8 83 0.0 0 0.0 3.2 11.6 3
14/01/2021 22:20 2.8 82 0.0 0 0.0 2.6 9.5 9
14/01/2021 22:30 2.7 82 0.0 0 0.0 2.4 8.5 16
14/01/2021 22:40 2.5 83 0.0 0 0.0 1.9 6.8 27
14/01/2021 22:50 2.4 83 0.0 0 0.0 1.7 5.9 27
14/01/2021 23:00 2.2 84 0.0 0 0.0 1.8 6.5 31
14/01/2021 23:10 2.3 83 0.0 0 0.0 2.3 8.3 7
14/01/2021 23:20 2.3 83 0.0 0 0.0 2.2 8.0 349
14/01/2021 23:30 2.2 84 0.0 0 0.0 1.5 5.2 312
14/01/2021 23:40 2.1 83 0.0 0 0.0 2.0 7.1 349
14/01/2021 23:50 2.1 83 0.0 0 0.0 2.4 8.5 18
Anterior Página 1 de 1 Siguiente

NOTA: Tipo de datos según el color:
   - Valores diarios o 10 minutos correctos
   - Valores diarios calculados a partir de un número de datos 10 minutos menor que 144 y mayor que 120, o de un número de datos semihorarios menor que 48 y mayor que 40 (caso de las estaciones de INTIA Y Ministerio)
   - Valores diez minutos estimados


Contacto        Enlaces        Aviso legal